Time;durP1;ratioP1;P1;durP2;ratioP2;P2;SDS_P1;SDS_P2;PMS_P1;PMS_P2;Temp;Humidity;BMP_temperature;BMP_pressure;BME280_temperature;BME280_humidity;BME280_pressure;Samples;Min_cycle;Max_cycle;Signal;HPM_P1;HPM_P2
2023/10/06 00:02:58;;;;;;;4.00;1.00;;;35.90;29.80;;;;;;5053008;28;20043;-65
2023/10/06 00:05:25;;;;;;;6.35;1.25;;;35.80;30.00;;;;;;5062861;28;20108;-64
2023/10/06 00:07:51;;;;;;;11.43;1.20;;;35.70;30.00;;;;;;5058732;28;20412;-62
2023/10/06 00:10:23;;;;;;;6.95;1.30;;;35.70;30.80;;;;;;5063150;28;20016;-63
2023/10/06 00:12:58;;;;;;;10.80;1.75;;;35.60;29.80;;;;;;5053697;28;20019;-64
2023/10/06 00:15:35;;;;;;;22.10;2.50;;;35.50;29.90;;;;;;5058078;28;20396;-64
2023/10/06 00:18:07;;;;;;;13.88;2.03;;;35.50;30.30;;;;;;5059182;28;20025;-64
2023/10/06 00:21:04;;;;;;;6.38;1.45;;;35.40;30.50;;;;;;5058212;28;20075;-65
2023/10/06 00:23:26;;;;;;;9.02;1.20;;;35.30;30.30;;;;;;5056786;28;20082;-64
2023/10/06 00:25:57;;;;;;;7.72;1.30;;;35.20;30.80;;;;;;5059425;28;20013;-65
2023/10/06 00:28:28;;;;;;;6.22;1.70;;;35.20;29.80;;;;;;5061111;28;20024;-64
2023/10/06 00:30:56;;;;;;;5.65;1.85;;;35.20;30.00;;;;;;5058379;28;20435;-64
2023/10/06 00:33:32;;;;;;;11.38;1.70;;;35.10;30.10;;;;;;5054725;28;20013;-63
2023/10/06 00:36:11;;;;;;;7.65;1.52;;;35.00;30.30;;;;;;5058931;28;20384;-62
2023/10/06 00:38:38;;;;;;;8.90;1.42;;;34.90;31.20;;;;;;5056469;28;20070;-64
2023/10/06 00:41:06;;;;;;;18.83;13.90;;;34.90;31.10;;;;;;5063608;28;20052;-67
2023/10/06 00:43:36;;;;;;;29.17;15.68;;;34.80;31.30;;;;;;5053841;28;20017;-63
2023/10/06 00:46:18;;;;;;;35.70;15.60;;;34.70;31.50;;;;;;5057920;28;20029;-62
2023/10/06 00:48:56;;;;;;;25.05;15.57;;;34.70;31.50;;;;;;5059745;28;20269;-62
2023/10/06 00:51:26;;;;;;;24.13;15.40;;;34.60;31.20;;;;;;5061393;28;20023;-64
2023/10/06 00:53:56;;;;;;;24.13;15.38;;;34.50;30.70;;;;;;5057211;28;20591;-61
2023/10/06 00:56:24;;;;;;;22.13;15.20;;;34.40;30.70;;;;;;5059273;28;20064;-63
2023/10/06 00:58:52;;;;;;;8.02;1.63;;;34.40;30.80;;;;;;5054810;28;20013;-60
2023/10/06 01:01:19;;;;;;;5.00;1.75;;;34.30;30.90;;;;;;5054182;28;20028;-61
2023/10/06 01:04:00;;;;;;;6.13;1.58;;;34.30;30.90;;;;;;5054320;28;20473;-61
2023/10/06 01:06:35;;;;;;;8.45;1.58;;;34.10;30.80;;;;;;5062535;28;20047;-61
2023/10/06 01:09:14;;;;;;;4.57;1.40;;;34.10;31.60;;;;;;5055920;28;20049;-63
2023/10/06 01:11:47;;;;;;;4.63;1.83;;;34.00;31.50;;;;;;5057044;28;20059;-61
2023/10/06 01:14:27;;;;;;;19.25;2.30;;;33.90;31.60;;;;;;5059863;28;20059;-59
2023/10/06 01:19:47;;;;;;;9.93;2.20;;;33.70;31.20;;;;;;5052729;28;20043;-60
2023/10/06 01:22:24;;;;;;;10.57;2.15;;;33.60;31.60;;;;;;5056611;28;20036;-60
2023/10/06 01:24:54;;;;;;;11.15;2.38;;;33.50;31.90;;;;;;5054696;28;20096;-58
2023/10/06 01:27:27;;;;;;;7.50;2.40;;;33.40;32.30;;;;;;5058140;28;20016;-59
2023/10/06 01:32:45;;;;;;;15.27;2.80;;;33.30;32.30;;;;;;5060038;28;20028;-60
2023/10/06 01:35:23;;;;;;;9.15;3.35;;;33.20;32.90;;;;;;5060019;28;20012;-62
2023/10/06 01:38:00;;;;;;;18.90;3.15;;;33.00;32.60;;;;;;5055638;28;20031;-60
2023/10/06 01:42:54;;;;;;;16.42;2.90;;;32.90;32.50;;;;;;5060509;28;20505;-59
2023/10/06 01:45:22;;;;;;;9.80;2.78;;;32.80;32.10;;;;;;5053882;28;20075;-57
2023/10/06 01:48:09;;;;;;;13.35;3.13;;;32.80;32.80;;;;;;5054008;28;21840;-55
2023/10/06 01:50:35;;;;;;;16.35;3.70;;;32.70;32.70;;;;;;5050675;28;20017;-56
2023/10/06 01:53:07;;;;;;;20.85;3.95;;;32.60;33.50;;;;;;5051668;28;20095;-56
2023/10/06 01:55:38;;;;;;;17.02;4.50;;;32.40;34.80;;;;;;5055729;28;20511;-54
2023/10/06 01:58:11;;;;;;;29.98;6.07;;;32.40;35.70;;;;;;5055409;28;20037;-55
2023/10/06 02:00:38;;;;;;;18.88;6.55;;;32.30;35.50;;;;;;5052765;28;20091;-59
2023/10/06 02:03:10;;;;;;;24.98;6.22;;;32.20;35.20;;;;;;5050699;28;20032;-53
2023/10/06 02:05:40;;;;;;;18.08;5.88;;;32.10;34.90;;;;;;5048876;28;20023;-54
2023/10/06 02:08:09;;;;;;;36.78;6.35;;;32.10;35.60;;;;;;5051070;28;20021;-57
2023/10/06 02:10:40;;;;;;;27.33;6.15;;;31.90;35.60;;;;;;5052669;28;20385;-63
2023/10/06 02:13:07;;;;;;;22.92;4.70;;;31.90;36.10;;;;;;5059164;28;20035;-53
2023/10/06 02:15:33;;;;;;;19.90;4.53;;;31.70;35.80;;;;;;5055791;28;20063;-57
2023/10/06 02:18:00;;;;;;;33.13;5.50;;;31.70;35.90;;;;;;5059755;28;20024;-55
2023/10/06 02:23:03;;;;;;;21.73;4.25;;;31.50;36.50;;;;;;5052387;28;20029;-55
2023/10/06 02:25:31;;;;;;;17.48;4.30;;;31.40;36.30;;;;;;5053277;28;20021;-56
2023/10/06 02:27:59;;;;;;;25.00;5.05;;;31.30;36.40;;;;;;5048804;28;20024;-57
2023/10/06 02:30:37;;;;;;;23.13;4.68;;;31.20;36.80;;;;;;5049099;28;20439;-56
2023/10/06 02:33:07;;;;;;;25.02;4.38;;;31.10;37.90;;;;;;5053311;28;20039;-58
2023/10/06 02:35:46;;;;;;;28.42;5.45;;;31.00;38.60;;;;;;5050915;28;20041;-58
2023/10/06 02:38:12;;;;;;;26.05;5.32;;;30.90;38.40;;;;;;5052419;28;20021;-57
2023/10/06 02:40:45;;;;;;;30.70;5.82;;;30.80;38.80;;;;;;5053482;28;20028;-58
2023/10/06 02:43:19;;;;;;;37.17;6.18;;;30.70;39.50;;;;;;5053000;28;20485;-58
2023/10/06 02:45:46;;;;;;;37.92;6.03;;;30.60;39.00;;;;;;5054048;28;20033;-58
2023/10/06 02:48:17;;;;;;;37.10;6.38;;;30.50;39.60;;;;;;5052568;28;20469;-56
2023/10/06 02:50:46;;;;;;;37.17;6.55;;;30.40;40.60;;;;;;5056843;28;20491;-57
2023/10/06 02:53:14;;;;;;;53.00;7.70;;;30.30;40.50;;;;;;5051571;28;20476;-61
2023/10/06 02:55:44;;;;;;;42.88;7.13;;;30.30;40.80;;;;;;5060674;28;20059;-60
2023/10/06 02:58:20;;;;;;;46.53;8.23;;;30.20;41.00;;;;;;5050683;28;20540;-60
2023/10/06 03:00:50;;;;;;;;;;;30.10;40.80;;;;;;5051987;28;20029;-59
2023/10/06 03:03:22;;;;;;;42.92;7.57;;;30.00;40.20;;;;;;5056959;28;20486;-59
2023/10/06 03:05:51;;;;;;;49.53;9.15;;;30.00;39.90;;;;;;5054331;28;20026;-62
2023/10/06 03:08:21;;;;;;;55.22;7.80;;;29.90;39.70;;;;;;5050980;28;20009;-59
2023/10/06 03:10:49;;;;;;;57.70;9.68;;;29.90;40.90;;;;;;5052690;28;20435;-60
2023/10/06 03:13:35;;;;;;;55.30;10.32;;;29.80;41.10;;;;;;5048803;28;20496;-59
2023/10/06 03:16:02;;;;;;;49.27;9.17;;;29.70;41.80;;;;;;5051375;28;20032;-65
2023/10/06 03:18:30;;;;;;;47.58;9.50;;;29.60;41.90;;;;;;5050206;28;20074;-62
2023/10/06 03:21:01;;;;;;;55.35;9.30;;;29.60;43.00;;;;;;5055720;28;20012;-63
2023/10/06 03:23:32;;;;;;;70.53;10.40;;;29.50;43.00;;;;;;5058720;28;20044;-61
2023/10/06 03:25:58;;;;;;;62.92;10.82;;;29.50;42.50;;;;;;5055095;28;20005;-62
2023/10/06 03:28:37;;;;;;;56.45;9.40;;;29.40;42.70;;;;;;5059142;28;20021;-63
2023/10/06 03:33:48;;;;;;;67.00;11.85;;;29.30;42.80;;;;;;5058191;28;20028;-60
2023/10/06 03:36:28;;;;;;;62.42;10.63;;;29.20;42.70;;;;;;5057895;28;20481;-63
2023/10/06 03:38:56;;;;;;;82.40;11.95;;;29.20;43.10;;;;;;5055630;28;20064;-64
2023/10/06 03:41:37;;;;;;;58.42;10.68;;;29.10;43.30;;;;;;5056242;28;20477;-66
2023/10/06 03:44:04;;;;;;;66.18;11.40;;;29.00;42.90;;;;;;5056686;28;20396;-63
2023/10/06 03:46:38;;;;;;;73.72;12.25;;;29.00;42.70;;;;;;5063193;28;20017;-62
2023/10/06 03:49:07;;;;;;;82.13;13.35;;;29.00;44.50;;;;;;5055205;28;20470;-60
2023/10/06 03:51:38;;;;;;;66.55;11.95;;;28.90;44.20;;;;;;5057688;28;20108;-61
2023/10/06 03:54:05;;;;;;;65.65;11.98;;;28.90;44.90;;;;;;5054019;28;20025;-59
2023/10/06 03:56:32;;;;;;;67.32;12.85;;;28.80;44.30;;;;;;5052429;28;20102;-64
2023/10/06 03:59:00;;;;;;;63.80;12.60;;;28.80;43.80;;;;;;5052091;28;20024;-61
2023/10/06 04:01:26;;;;;;;70.28;13.27;;;28.70;44.00;;;;;;5053228;28;20029;-62
2023/10/06 04:03:59;;;;;;;68.07;12.77;;;28.60;44.40;;;;;;5054864;28;20434;-62
2023/10/06 04:06:27;;;;;;;89.28;14.80;;;28.60;44.40;;;;;;5054318;28;20502;-65
2023/10/06 04:08:56;;;;;;;79.10;13.52;;;28.50;44.60;;;;;;5061241;28;20032;-59
2023/10/06 04:11:29;;;;;;;69.40;13.52;;;28.50;43.40;;;;;;5054996;28;20025;-60
2023/10/06 04:13:56;;;;;;;74.22;14.10;;;28.50;43.40;;;;;;5065696;28;20025;-63
2023/10/06 04:16:23;;;;;;;67.65;13.45;;;28.40;43.80;;;;;;5054929;28;20113;-60
2023/10/06 04:18:49;;;;;;;66.15;13.80;;;28.30;44.60;;;;;;5054047;28;20021;-58
2023/10/06 04:21:17;;;;;;;62.63;14.60;;;28.30;44.80;;;;;;5056074;28;20508;-61
2023/10/06 04:23:43;;;;;;;73.40;15.73;;;28.30;44.90;;;;;;5051484;28;20067;-63
2023/10/06 04:26:13;;;;;;;65.18;14.55;;;28.20;44.60;;;;;;5056107;28;20017;-61
2023/10/06 04:28:42;;;;;;;95.82;16.90;;;28.20;45.30;;;;;;5053041;28;20017;-61
2023/10/06 04:31:08;;;;;;;111.43;18.70;;;28.10;45.30;;;;;;5057789;28;20012;-61
2023/10/06 04:33:35;;;;;;;111.75;18.65;;;28.10;45.00;;;;;;5055974;28;20485;-59
2023/10/06 04:36:07;;;;;;;144.93;19.85;;;28.00;45.00;;;;;;5051963;28;20021;-61
2023/10/06 04:38:38;;;;;;;117.75;20.77;;;28.00;45.00;;;;;;5050793;28;20122;-59
2023/10/06 04:41:10;;;;;;;97.43;19.52;;;27.90;45.20;;;;;;5050692;28;20373;-57
2023/10/06 04:43:37;;;;;;;141.73;22.38;;;27.90;45.20;;;;;;5051343;28;20052;-60
2023/10/06 04:46:06;;;;;;;112.00;19.92;;;27.90;46.60;;;;;;5053010;28;20013;-56
2023/10/06 04:48:35;;;;;;;109.65;19.38;;;27.80;45.50;;;;;;5053070;28;20013;-62
2023/10/06 04:51:04;;;;;;;119.88;19.13;;;27.80;46.30;;;;;;5051934;28;20009;-62
2023/10/06 04:53:36;;;;;;;85.10;17.85;;;27.80;45.20;;;;;;5050734;28;20100;-60
2023/10/06 04:56:11;;;;;;;83.63;19.58;;;27.80;46.00;;;;;;5056405;28;20112;-62
2023/10/06 04:58:42;;;;;;;83.28;21.40;;;27.70;45.10;;;;;;5056328;28;20011;-62
2023/10/06 05:01:08;;;;;;;72.57;19.80;;;27.70;44.10;;;;;;5054944;28;20061;-61
2023/10/06 05:03:43;;;;;;;81.40;21.00;;;27.70;44.50;;;;;;5056137;28;20044;-60
2023/10/06 05:06:15;;;;;;;86.32;19.67;;;27.70;42.90;;;;;;5051172;28;20062;-60
2023/10/06 05:08:46;;;;;;;53.97;17.55;;;27.70;42.20;;;;;;5050939;28;20013;-60
2023/10/06 05:11:14;;;;;;;46.63;15.45;;;27.70;41.70;;;;;;5049632;28;20013;-60
2023/10/06 05:13:41;;;;;;;45.72;15.70;;;27.80;41.20;;;;;;5053877;28;20133;-59
2023/10/06 05:16:11;;;;;;;55.97;16.00;;;27.80;41.00;;;;;;5049511;28;20119;-60
2023/10/06 05:18:39;;;;;;;39.28;13.90;;;27.90;40.70;;;;;;5053332;28;20023;-60
2023/10/06 05:21:08;;;;;;;56.53;13.85;;;27.90;40.60;;;;;;5052147;28;20432;-58
2023/10/06 05:23:35;;;;;;;44.05;11.63;;;27.90;40.70;;;;;;5051526;28;20024;-60
2023/10/06 05:26:09;;;;;;;54.05;13.02;;;27.80;40.70;;;;;;5054530;28;20013;-59
2023/10/06 05:28:37;;;;;;;54.70;13.60;;;27.80;40.80;;;;;;5059811;28;20012;-62
2023/10/06 05:31:07;;;;;;;58.28;12.80;;;27.80;41.00;;;;;;5054958;28;20124;-61
2023/10/06 05:33:33;;;;;;;46.50;13.05;;;27.70;41.20;;;;;;5052483;28;20546;-61
2023/10/06 05:36:00;;;;;;;49.78;12.70;;;27.70;42.20;;;;;;5051527;28;20469;-61
2023/10/06 05:38:27;;;;;;;64.60;15.10;;;27.60;43.10;;;;;;5051697;28;20013;-60
2023/10/06 05:40:53;;;;;;;62.00;15.68;;;27.60;43.10;;;;;;5048263;28;20013;-59
2023/10/06 05:43:24;;;;;;;54.72;13.43;;;27.60;42.20;;;;;;5052462;28;20036;-59
2023/10/06 05:45:56;;;;;;;52.78;14.60;;;27.60;42.10;;;;;;5055109;28;20009;-58
2023/10/06 05:48:28;;;;;;;60.22;14.85;;;27.50;42.90;;;;;;5054272;28;20434;-61
2023/10/06 05:51:04;;;;;;;46.38;15.13;;;27.40;44.20;;;;;;5054472;28;20032;-60
2023/10/06 05:53:38;;;;;;;54.67;16.30;;;27.40;43.30;;;;;;5051903;28;20043;-58
2023/10/06 05:56:07;;;;;;;65.00;16.33;;;27.30;44.70;;;;;;5052012;28;20029;-61
2023/10/06 05:58:37;;;;;;;60.10;14.85;;;27.30;43.80;;;;;;5057583;28;20017;-59
2023/10/06 06:01:06;;;;;;;56.75;15.13;;;27.20;43.30;;;;;;5055723;28;20021;-59
2023/10/06 06:03:33;;;;;;;62.47;14.18;;;27.20;43.90;;;;;;5052471;28;20473;-60
2023/10/06 06:06:08;;;;;;;43.53;11.45;;;27.20;44.20;;;;;;5050990;28;20027;-62
2023/10/06 06:08:35;;;;;;;28.58;9.65;;;27.20;43.40;;;;;;5052193;28;20009;-59
2023/10/06 06:11:02;;;;;;;32.15;10.45;;;27.20;42.20;;;;;;5047501;28;20043;-60
2023/10/06 06:13:28;;;;;;;40.60;10.00;;;27.20;42.00;;;;;;5058077;28;20039;-61
2023/10/06 06:15:56;;;;;;;44.65;11.50;;;27.20;42.20;;;;;;5053959;28;20041;-61
2023/10/06 06:18:27;;;;;;;38.33;10.27;;;27.10;43.70;;;;;;5060732;28;20063;-58
2023/10/06 06:20:54;;;;;;;44.80;14.52;;;27.10;43.30;;;;;;5050848;28;20074;-61
2023/10/06 06:23:20;;;;;;;39.13;14.43;;;27.10;42.90;;;;;;5057755;28;20031;-62
2023/10/06 06:25:47;;;;;;;37.53;10.88;;;27.10;42.20;;;;;;5056326;28;20044;-61
2023/10/06 06:28:14;;;;;;;32.25;9.40;;;27.00;42.30;;;;;;5053264;28;20433;-61
2023/10/06 06:30:41;;;;;;;35.30;10.05;;;26.90;42.50;;;;;;5054969;28;20013;-61
2023/10/06 06:33:12;;;;;;;29.58;8.07;;;26.90;44.90;;;;;;5065226;28;20012;-61
2023/10/06 06:35:40;;;;;;;39.22;8.07;;;26.80;45.00;;;;;;5051315;28;20481;-61
2023/10/06 06:38:07;;;;;;;28.83;8.65;;;26.80;45.20;;;;;;5052977;28;20496;-60
2023/10/06 06:40:37;;;;;;;44.03;9.80;;;26.70;45.80;;;;;;5058796;28;20414;-59
2023/10/06 06:43:09;;;;;;;41.38;9.15;;;26.60;45.30;;;;;;5049534;28;20036;-61
2023/10/06 06:45:41;;;;;;;43.75;9.18;;;26.60;45.40;;;;;;5048724;28;20022;-60
2023/10/06 06:48:12;;;;;;;42.22;9.05;;;26.60;47.20;;;;;;5058338;28;20009;-59
2023/10/06 06:50:42;;;;;;;41.67;8.38;;;26.50;45.30;;;;;;5051343;28;20009;-61
2023/10/06 06:53:09;;;;;;;37.50;8.93;;;26.30;44.60;;;;;;5052975;28;20025;-58
2023/10/06 06:55:36;;;;;;;32.55;7.85;;;26.30;45.40;;;;;;5059276;28;20029;-61
2023/10/06 06:58:06;;;;;;;28.77;7.90;;;26.30;45.20;;;;;;5060099;28;20075;-59
2023/10/06 07:00:35;;;;;;;29.55;7.38;;;26.30;45.30;;;;;;5059349;28;20037;-60
2023/10/06 07:03:02;;;;;;;30.38;6.20;;;26.20;46.20;;;;;;5057473;28;20120;-59
2023/10/06 07:05:30;;;;;;;19.85;6.25;;;26.20;44.50;;;;;;5059763;28;20024;-61
2023/10/06 07:07:56;;;;;;;24.50;6.25;;;26.20;44.80;;;;;;5058477;28;20025;-60
2023/10/06 07:10:25;;;;;;;28.27;6.40;;;26.20;43.50;;;;;;5057060;28;20013;-60
2023/10/06 07:12:51;;;;;;;31.55;5.93;;;26.10;44.30;;;;;;5057542;28;22360;-59
2023/10/06 07:15:20;;;;;;;23.35;5.88;;;26.10;44.10;;;;;;5056264;28;20095;-59
2023/10/06 07:17:50;;;;;;;29.48;6.43;;;26.10;44.30;;;;;;5056790;28;20490;-60
2023/10/06 07:20:19;;;;;;;30.27;5.70;;;26.10;45.30;;;;;;5059339;28;20027;-61
2023/10/06 07:22:46;;;;;;;21.80;5.32;;;26.10;44.40;;;;;;5061053;28;20039;-60
2023/10/06 07:25:15;;;;;;;17.85;3.83;;;26.10;43.30;;;;;;5057507;28;20069;-61
2023/10/06 07:27:49;;;;;;;13.70;3.15;;;26.00;42.20;;;;;;5058071;28;20023;-63
2023/10/06 07:30:16;;;;;;;27.38;19.10;;;26.10;44.10;;;;;;5057461;28;20032;-60
2023/10/06 07:32:44;;;;;;;40.60;19.98;;;26.00;43.00;;;;;;5059077;28;20016;-61
2023/10/06 07:35:18;;;;;;;29.30;19.40;;;26.00;43.20;;;;;;5057329;28;20025;-61
2023/10/06 07:37:49;;;;;;;34.10;19.23;;;26.00;43.50;;;;;;5058278;28;20012;-61
2023/10/06 07:40:21;;;;;;;33.42;18.88;;;26.00;43.30;;;;;;5058665;28;20890;-59
2023/10/06 07:42:51;;;;;;;10.77;1.75;;;26.00;44.10;;;;;;5055276;28;20481;-60
2023/10/06 07:45:20;;;;;;;8.38;1.85;;;25.90;44.30;;;;;;5057855;28;20013;-61
2023/10/06 07:47:46;;;;;;;12.90;1.67;;;25.90;43.90;;;;;;5055604;28;20468;-61
2023/10/06 07:50:15;;;;;;;7.38;1.90;;;26.00;43.70;;;;;;5058306;28;20390;-62
2023/10/06 07:52:48;;;;;;;8.07;1.65;;;26.00;43.10;;;;;;5057804;28;20025;-62
2023/10/06 07:55:16;;;;;;;7.25;1.80;;;26.00;42.90;;;;;;5056250;28;20404;-59
2023/10/06 07:57:45;;;;;;;9.45;3.30;;;26.10;42.80;;;;;;5057198;28;20017;-60
2023/10/06 08:00:18;;;;;;;11.27;6.32;;;26.10;42.20;;;;;;5058223;28;20033;-58
2023/10/06 08:02:45;;;;;;;7.60;3.95;;;26.10;41.70;;;;;;5057320;28;20024;-61
2023/10/06 08:05:17;;;;;;;6.07;2.30;;;26.10;42.20;;;;;;5058202;28;20017;-61
2023/10/06 08:07:44;;;;;;;4.70;1.60;;;26.10;41.90;;;;;;5057198;28;20021;-60
2023/10/06 08:10:14;;;;;;;8.50;1.58;;;26.10;41.40;;;;;;5057170;28;20092;-59
2023/10/06 08:12:50;;;;;;;5.05;1.50;;;26.10;41.50;;;;;;5053312;28;20016;-60
2023/10/06 08:15:17;;;;;;;4.25;1.35;;;26.20;40.80;;;;;;5055911;28;20023;-60
2023/10/06 08:17:50;;;;;;;3.85;1.35;;;26.20;40.60;;;;;;5057492;28;20017;-60
2023/10/06 08:20:17;;;;;;;6.40;1.25;;;26.20;41.10;;;;;;5056555;28;20039;-59
2023/10/06 08:22:47;;;;;;;1.98;1.00;;;26.20;40.80;;;;;;5055025;28;20029;-59
2023/10/06 08:25:15;;;;;;;5.47;1.40;;;26.10;40.20;;;;;;5056032;28;20025;-59
2023/10/06 08:27:42;;;;;;;6.57;1.35;;;26.10;41.00;;;;;;5059527;28;20012;-60
2023/10/06 08:30:19;;;;;;;5.03;1.33;;;26.10;40.40;;;;;;5055320;28;20036;-61
2023/10/06 08:32:53;;;;;;;4.15;1.38;;;26.10;40.40;;;;;;5055814;28;20024;-59
2023/10/06 08:35:20;;;;;;;5.97;1.40;;;26.10;40.40;;;;;;5057286;28;20025;-60
2023/10/06 08:37:49;;;;;;;3.63;1.58;;;26.10;40.10;;;;;;5054675;28;20070;-60
2023/10/06 08:40:19;;;;;;;6.35;1.63;;;26.10;40.80;;;;;;5056128;28;20469;-59
2023/10/06 08:42:51;;;;;;;6.45;1.45;;;26.10;41.00;;;;;;5053819;28;20029;-61
2023/10/06 08:45:24;;;;;;;4.70;1.10;;;26.10;40.50;;;;;;5055624;28;20020;-60
2023/10/06 08:48:01;;;;;;;7.22;1.60;;;26.10;41.30;;;;;;5057551;28;20024;-61
2023/10/06 08:50:28;;;;;;;;;;;26.10;40.50;;;;;;5058806;28;20074;-60
2023/10/06 08:52:56;;;;;;;7.78;1.48;;;26.10;40.20;;;;;;5055355;28;19904;-62
2023/10/06 08:55:25;;;;;;;4.63;1.50;;;26.20;40.00;;;;;;5053885;28;20440;-64
2023/10/06 08:57:53;;;;;;;3.60;1.70;;;26.40;39.80;;;;;;5054430;28;20025;-61
2023/10/06 09:00:32;;;;;;;3.92;1.65;;;26.50;39.30;;;;;;5056282;28;20102;-59
2023/10/06 09:03:08;;;;;;;5.22;1.38;;;26.70;39.00;;;;;;5054202;28;20490;-60
2023/10/06 09:05:38;;;;;;;6.82;1.75;;;26.90;38.50;;;;;;5055460;28;20024;-59
2023/10/06 09:08:14;;;;;;;7.25;1.58;;;27.00;38.10;;;;;;5055264;28;20055;-60
2023/10/06 09:10:48;;;;;;;5.75;1.80;;;27.00;37.60;;;;;;5056114;28;20016;-59
2023/10/06 09:13:16;;;;;;;5.68;1.70;;;27.10;37.70;;;;;;5058394;28;20367;-57
2023/10/06 09:15:44;;;;;;;7.72;1.90;;;27.20;37.70;;;;;;5053732;28;20074;-60
2023/10/06 09:18:24;;;;;;;10.68;1.80;;;27.20;37.70;;;;;;5053275;28;20093;-59
2023/10/06 09:20:51;;;;;;;2.78;1.30;;;27.20;37.70;;;;;;5056833;28;20552;-60
2023/10/06 09:23:39;;;;;;;6.97;1.58;;;27.20;37.50;;;;;;5056510;28;20319;-57
2023/10/06 09:26:11;;;;;;;11.15;1.83;;;27.10;37.60;;;;;;5055630;28;20519;-61
2023/10/06 09:29:02;;;;;;;6.70;1.40;;;27.20;38.10;;;;;;5055401;28;20025;-60
2023/10/06 09:31:35;;;;;;;3.72;1.77;;;27.20;37.90;;;;;;5054072;28;20019;-60
2023/10/06 09:34:01;;;;;;;7.20;1.65;;;27.20;38.50;;;;;;5056841;28;20024;-59
2023/10/06 09:36:33;;;;;;;3.30;1.52;;;27.10;38.30;;;;;;5057634;28;20508;-60
2023/10/06 09:39:00;;;;;;;6.65;1.70;;;27.10;38.60;;;;;;5052356;28;20055;-61
2023/10/06 09:41:34;;;;;;;8.88;1.52;;;27.00;38.90;;;;;;5055494;28;20499;-60
2023/10/06 09:44:09;;;;;;;10.23;1.60;;;27.00;38.90;;;;;;5054659;28;20025;-59
2023/10/06 09:46:36;;;;;;;5.07;1.73;;;26.90;38.90;;;;;;5055147;28;20035;-56
2023/10/06 09:49:05;;;;;;;6.82;1.73;;;26.80;39.20;;;;;;5054643;28;20035;-59
2023/10/06 09:51:33;;;;;;;6.60;1.67;;;26.80;40.00;;;;;;5052149;28;20017;-60
2023/10/06 09:54:02;;;;;;;7.85;1.48;;;26.70;40.70;;;;;;5054898;28;20020;-59
2023/10/06 09:56:28;;;;;;;8.73;1.90;;;26.60;41.50;;;;;;5055515;28;20032;-59
2023/10/06 09:58:55;;;;;;;9.73;2.17;;;26.50;40.40;;;;;;5055823;28;20016;-59
2023/10/06 10:01:24;;;;;;;10.82;2.30;;;26.40;40.50;;;;;;5056630;28;20013;-59
2023/10/06 10:03:54;;;;;;;7.93;2.50;;;26.30;41.20;;;;;;5053977;28;20009;-60
2023/10/06 10:06:22;;;;;;;4.18;1.88;;;26.30;41.40;;;;;;5055551;28;20017;-60
2023/10/06 10:08:51;;;;;;;5.05;2.10;;;26.30;42.30;;;;;;5055938;28;20032;-61
2023/10/06 10:11:31;;;;;;;10.23;2.25;;;26.10;42.70;;;;;;5054949;28;20029;-61
2023/10/06 10:14:26;;;;;;;6.10;2.20;;;26.00;42.30;;;;;;5056325;28;20475;-60
2023/10/06 10:17:18;;;;;;;8.10;2.60;;;26.00;42.50;;;;;;5063316;28;20025;-61
2023/10/06 10:19:46;;;;;;;12.18;3.30;;;25.90;42.90;;;;;;5054176;28;20017;-62
2023/10/06 10:22:16;;;;;;;32.50;5.10;;;25.90;42.20;;;;;;5053238;28;20017;-60
2023/10/06 10:24:45;;;;;;;19.75;3.85;;;25.80;41.80;;;;;;5051882;28;20025;-59
2023/10/06 10:27:14;;;;;;;17.80;3.95;;;25.70;42.00;;;;;;5054745;28;20083;-61
2023/10/06 10:29:41;;;;;;;15.73;3.15;;;25.70;43.30;;;;;;5055852;28;20077;-59
2023/10/06 10:32:29;;;;;;;15.25;3.00;;;25.70;43.70;;;;;;5056880;28;20027;-60
2023/10/06 10:35:15;;;;;;;12.68;2.72;;;25.60;43.40;;;;;;5057697;28;20045;-60
2023/10/06 10:37:55;;;;;;;12.63;2.38;;;25.60;43.30;;;;;;5054214;28;20008;-61
2023/10/06 10:40:27;;;;;;;11.45;2.70;;;25.50;44.00;;;;;;5053371;28;20009;-61
2023/10/06 10:43:14;;;;;;;14.38;2.25;;;25.40;43.90;;;;;;5049899;28;20038;-61
2023/10/06 10:45:47;;;;;;;;;;;25.40;45.40;;;;;;5053678;28;20017;-62
2023/10/06 10:48:15;;;;;;;9.50;2.53;;;25.30;45.70;;;;;;5051702;28;20325;-61
2023/10/06 10:50:57;;;;;;;8.40;2.53;;;25.10;46.00;;;;;;5054792;28;20152;-61
2023/10/06 10:53:27;;;;;;;11.75;2.53;;;25.10;45.50;;;;;;5053825;28;20028;-58
2023/10/06 10:55:56;;;;;;;16.35;2.63;;;25.00;46.40;;;;;;5050982;28;20045;-59
2023/10/06 10:58:44;;;;;;;11.65;2.47;;;25.10;46.00;;;;;;5052525;28;20017;-62
2023/10/06 11:01:29;;;;;;;8.50;2.22;;;25.10;46.20;;;;;;5052449;28;20070;-61
2023/10/06 11:04:31;;;;;;;13.98;2.75;;;25.00;46.70;;;;;;5051414;28;20037;-61
2023/10/06 11:07:01;;;;;;;13.80;2.60;;;24.90;46.80;;;;;;5052830;28;20844;-61
2023/10/06 11:12:00;;;;;;;12.10;2.28;;;24.80;45.90;;;;;;5053924;28;20032;-62
2023/10/06 11:14:30;;;;;;;12.00;2.63;;;24.70;45.50;;;;;;5054310;28;20067;-60
2023/10/06 11:17:05;;;;;;;10.07;2.33;;;24.80;45.20;;;;;;5054687;28;20021;-61
2023/10/06 11:19:33;;;;;;;7.38;2.22;;;24.80;44.70;;;;;;5054069;28;20407;-62
2023/10/06 11:22:13;;;;;;;11.20;2.00;;;24.80;46.10;;;;;;5054327;28;20527;-61
2023/10/06 11:24:40;;;;;;;15.27;2.78;;;24.60;45.80;;;;;;5048713;28;20024;-59
2023/10/06 11:27:28;;;;;;;6.75;2.30;;;24.50;46.10;;;;;;5055099;28;20017;-62
2023/10/06 11:29:59;;;;;;;10.20;2.47;;;24.50;47.80;;;;;;5052420;28;20018;-60
2023/10/06 11:32:28;;;;;;;10.18;2.17;;;24.40;46.60;;;;;;5052179;28;20112;-60
2023/10/06 11:34:55;;;;;;;11.90;2.53;;;24.20;46.30;;;;;;5053425;28;20798;-61
2023/10/06 11:37:25;;;;;;;16.92;2.78;;;24.20;46.30;;;;;;5049737;28;20036;-61
2023/10/06 11:39:57;;;;;;;12.00;2.60;;;24.20;48.10;;;;;;5054794;28;20024;-60
2023/10/06 11:42:35;;;;;;;12.85;2.88;;;24.20;47.50;;;;;;5054187;28;20025;-60
2023/10/06 11:45:06;;;;;;;13.32;2.55;;;24.30;46.40;;;;;;5059942;28;20020;-61
2023/10/06 11:47:37;;;;;;;15.73;2.08;;;24.20;46.80;;;;;;5058195;28;20124;-61
2023/10/06 11:50:05;;;;;;;9.43;3.17;;;24.20;46.60;;;;;;5056637;28;20017;-60
2023/10/06 11:52:32;;;;;;;12.10;2.53;;;24.10;46.70;;;;;;5055173;28;20013;-61
2023/10/06 11:55:01;;;;;;;13.15;2.42;;;24.10;47.00;;;;;;5055013;28;20481;-61
2023/10/06 11:57:45;;;;;;;12.48;2.38;;;24.10;46.60;;;;;;5056730;28;20025;-62
2023/10/06 12:00:18;;;;;;;17.70;2.50;;;24.10;47.50;;;;;;5056910;28;20024;-61
2023/10/06 12:02:51;;;;;;;8.98;2.08;;;24.00;47.00;;;;;;5056164;28;20040;-63
2023/10/06 12:05:27;;;;;;;10.02;2.17;;;24.00;47.30;;;;;;5056003;28;20021;-62
2023/10/06 12:08:02;;;;;;;6.07;2.30;;;24.00;47.00;;;;;;5055824;28;20017;-61
2023/10/06 12:10:28;;;;;;;5.85;1.85;;;24.00;47.10;;;;;;5054134;28;20017;-60
2023/10/06 12:12:55;;;;;;;10.40;2.03;;;24.00;47.40;;;;;;5052676;28;20433;-62
2023/10/06 12:15:21;;;;;;;12.02;2.17;;;23.90;47.10;;;;;;5056870;28;20139;-63
2023/10/06 12:17:50;;;;;;;10.45;2.20;;;23.90;47.30;;;;;;5058247;28;20028;-62
2023/10/06 12:20:18;;;;;;;7.78;1.88;;;23.90;47.60;;;;;;5056068;28;20393;-61
2023/10/06 12:22:47;;;;;;;10.95;2.42;;;23.90;48.00;;;;;;5057267;28;20086;-62
2023/10/06 12:25:19;;;;;;;7.32;2.05;;;23.80;47.90;;;;;;5055623;28;20178;-60
2023/10/06 12:27:47;;;;;;;7.32;2.67;;;23.80;48.00;;;;;;5056908;28;20009;-60
2023/10/06 12:30:14;;;;;;;13.55;2.58;;;23.60;48.30;;;;;;5057381;28;20016;-59
2023/10/06 12:32:47;;;;;;;18.58;3.30;;;23.60;48.70;;;;;;5056577;28;20028;-61
2023/10/06 12:35:20;;;;;;;14.73;2.75;;;23.50;48.60;;;;;;5055447;28;20025;-60
2023/10/06 12:37:48;;;;;;;20.45;3.00;;;23.50;49.20;;;;;;5054811;28;20409;-60
2023/10/06 12:40:17;;;;;;;14.13;2.72;;;23.50;49.60;;;;;;5057095;28;20108;-61
2023/10/06 12:42:44;;;;;;;15.77;2.72;;;23.50;49.60;;;;;;5053344;28;20098;-60
2023/10/06 12:45:13;;;;;;;22.58;3.45;;;23.40;49.50;;;;;;5056320;28;20517;-58
2023/10/06 12:47:45;;;;;;;12.57;2.70;;;23.40;51.50;;;;;;5057880;28;20517;-60
2023/10/06 12:50:20;;;;;;;14.27;3.03;;;23.30;51.70;;;;;;5059422;28;20024;-59
2023/10/06 12:52:51;;;;;;;19.50;4.10;;;23.30;51.80;;;;;;5053682;28;20016;-59
2023/10/06 12:55:24;;;;;;;22.58;3.60;;;23.20;50.40;;;;;;5054308;28;20175;-58
2023/10/06 12:57:52;;;;;;;23.85;4.07;;;23.20;51.00;;;;;;5053972;28;20025;-61
2023/10/06 13:00:19;;;;;;;26.25;3.72;;;23.20;50.70;;;;;;5055759;28;20024;-60
2023/10/06 13:02:49;;;;;;;25.02;4.07;;;23.20;51.50;;;;;;5055892;28;20040;-59
2023/10/06 13:05:18;;;;;;;25.10;4.55;;;23.10;52.40;;;;;;5057525;28;20052;-60
2023/10/06 13:07:46;;;;;;;22.55;3.92;;;23.10;52.00;;;;;;5056463;28;20040;-58
2023/10/06 13:10:22;;;;;;;29.52;4.55;;;23.00;52.10;;;;;;5056628;28;20093;-60
2023/10/06 13:12:49;;;;;;;37.70;5.85;;;23.10;52.20;;;;;;5055926;28;20135;-62
2023/10/06 13:15:20;;;;;;;37.63;6.07;;;23.00;52.50;;;;;;5054372;28;20021;-61